San Marcos Municipal Airport
KHYI : now visible

Airfield :











YOU CAN JOIN US ON...

 
LOGIN :

Register | Disclaimer

   EN    FR    IT 

 









Legend :    VFR   Marginal VFR   IFR   Intensive IFR   Very Intensive IFR
Visi :
Ceiling :
>= 8 km
>= 3000ft
5 to 8 km
1000 to 3000 ft
1500m to 5 km
500 to 1000 ft
800 to 1500m
200 to 500 ft
< 800m
< 200 ft
Symbols :   Thunderstorms  Fog  Heavy snow  Heavy precipitations  Wind > 20 kt






- Airport Elevation : 597 ft


KHYI - San Marcos Municipal

CURRENT METAR :
  • 190156Z AUTO 00000KT 10SM CLR 13/07 A2994 RMK AO2 SLP136 T01330072

EXPIRED METARs :
  • 190056Z AUTO 08004KT 10SM CLR 14/07 A2993 RMK AO2 SLP131 T01390067
  • 182356Z 16005KT 10SM CLR 19/07 A2991 RMK AO2 SLP122 T01890072 10239 20189 55003

TAF N/A



MET'MAP, your aeronautical weather chart ! - Copyright ORBIFLY December 2007 - Disclaimer

ORBIFLY MET'MAP TEAM :

Programming & Development : Alexandra Zaïnal
Concept & Development : Baudouin d'Aumeries
Co-Development & Prog : Marc-Olivier Méhu
Technical & hardware support : Manuel Goepfert

Contact : metmap@orbifly.com




SOURCES & CREDITS :

   NOAA       Earth
Advisory